Time;durP1;ratioP1;P1;durP2;ratioP2;P2;SDS_P1;SDS_P2;PMS_P1;PMS_P2;Temp;Humidity;BMP_temperature;BMP_pressure;BME280_temperature;BME280_humidity;BME280_pressure;Samples;Min_cycle;Max_cycle;Signal;HPM_P1;HPM_P2
2021/08/25 00:01:32;;;;;;;0.63;0.30;;;26.00;79.90;;;;;;4982004;28;20136;-84
2021/08/25 00:04:01;;;;;;;2.22;0.25;;;26.00;80.00;;;;;;4963548;28;20286;-85
2021/08/25 00:06:29;;;;;;;1.60;0.30;;;26.00;80.00;;;;;;4962358;28;20159;-85
2021/08/25 00:08:58;;;;;;;0.30;0.20;;;26.00;80.10;;;;;;4963005;28;20047;-85
2021/08/25 00:11:26;;;;;;;0.45;0.38;;;26.00;80.20;;;;;;4963830;28;20083;-85
2021/08/25 00:13:55;;;;;;;0.35;0.30;;;26.10;80.10;;;;;;4944351;28;20058;-84
2021/08/25 00:16:25;;;;;;;1.42;0.40;;;26.00;80.30;;;;;;4969034;28;20047;-84
2021/08/25 00:18:54;;;;;;;0.20;0.17;;;26.00;80.60;;;;;;4945281;28;20055;-84
2021/08/25 00:21:23;;;;;;;1.58;0.30;;;25.90;80.80;;;;;;4967986;28;20933;-85
2021/08/25 00:23:51;;;;;;;1.13;0.30;;;25.80;81.10;;;;;;4964778;28;20054;-85
2021/08/25 00:26:20;;;;;;;1.20;0.20;;;25.80;81.40;;;;;;4964314;28;20059;-85
2021/08/25 00:28:48;;;;;;;0.88;0.40;;;25.80;81.40;;;;;;4964708;28;20071;-85
2021/08/25 00:31:17;;;;;;;1.30;0.40;;;25.80;81.40;;;;;;4963718;28;20058;-85
2021/08/25 00:33:47;;;;;;;1.33;0.30;;;25.70;81.50;;;;;;4961231;28;20518;-84
2021/08/25 00:36:16;;;;;;;0.40;0.20;;;25.70;81.70;;;;;;4963534;28;20133;-84
2021/08/25 00:38:44;;;;;;;1.88;0.35;;;25.60;81.70;;;;;;4956253;28;20591;-85
2021/08/25 00:41:13;;;;;;;0.75;0.40;;;25.70;81.80;;;;;;4981597;28;20146;-86
2021/08/25 00:43:41;;;;;;;0.77;0.30;;;25.70;81.80;;;;;;4961103;28;20039;-85
2021/08/25 00:46:11;;;;;;;2.08;0.50;;;25.60;82.00;;;;;;4969032;28;20584;-85
2021/08/25 00:48:40;;;;;;;0.50;0.30;;;25.60;82.20;;;;;;4964576;28;20128;-85
2021/08/25 00:51:11;;;;;;;0.82;0.30;;;25.50;81.80;;;;;;4962792;28;20035;-85
2021/08/25 00:53:40;;;;;;;0.85;0.38;;;25.60;82.10;;;;;;4964927;28;20454;-85
2021/08/25 00:56:09;;;;;;;0.57;0.22;;;25.50;82.30;;;;;;4963966;28;20062;-85
2021/08/25 00:58:40;;;;;;;0.90;0.30;;;25.50;82.20;;;;;;4966535;28;20053;-85
2021/08/25 01:01:13;;;;;;;8.57;0.65;;;25.40;82.60;;;;;;4976426;28;20134;-85
2021/08/25 01:03:48;;;;;;;1.15;0.35;;;25.40;82.50;;;;;;4977200;28;20052;-83
2021/08/25 01:06:23;;;;;;;0.70;0.40;;;25.50;82.40;;;;;;4963491;28;20043;-85
2021/08/25 01:08:53;;;;;;;0.50;0.30;;;25.50;82.50;;;;;;4962188;28;20062;-85
2021/08/25 01:11:21;;;;;;;1.52;0.50;;;25.40;83.20;;;;;;4968577;28;20034;-84
2021/08/25 01:13:49;;;;;;;1.67;0.40;;;25.30;83.50;;;;;;4988128;28;20057;-85
2021/08/25 01:17:13;;;;;;;0.60;0.30;;;25.30;83.90;;;;;;4960161;28;21214;-85
2021/08/25 01:20:02;;;;;;;0.90;0.57;;;25.30;84.00;;;;;;4945334;28;20070;-84
2021/08/25 01:22:32;;;;;;;1.13;0.40;;;25.30;84.10;;;;;;4959970;28;20078;-85
2021/08/25 01:25:01;;;;;;;1.75;0.43;;;25.30;84.60;;;;;;4961520;28;20536;-85
2021/08/25 01:27:30;;;;;;;2.03;0.50;;;25.30;84.50;;;;;;4961303;28;20051;-85
2021/08/25 01:30:00;;;;;;;1.00;0.50;;;25.20;84.80;;;;;;4960809;28;20039;-84
2021/08/25 01:32:28;;;;;;;0.40;0.30;;;25.20;84.90;;;;;;4951386;28;20126;-85
2021/08/25 01:35:07;;;;;;;0.60;0.30;;;25.10;85.10;;;;;;4957078;28;20381;-85
2021/08/25 01:37:36;;;;;;;0.47;0.40;;;25.00;85.20;;;;;;4961924;28;20763;-85
2021/08/25 01:40:05;;;;;;;3.90;0.60;;;24.90;85.60;;;;;;4969289;28;20047;-85
2021/08/25 01:42:34;;;;;;;1.15;0.30;;;24.90;85.90;;;;;;4964332;28;20051;-85
2021/08/25 01:45:06;;;;;;;0.40;0.28;;;24.80;86.60;;;;;;4962540;28;20042;-86
2021/08/25 01:47:36;;;;;;;0.85;0.30;;;24.70;87.00;;;;;;4981096;28;20551;-85
2021/08/25 01:50:06;;;;;;;1.05;0.50;;;24.70;87.40;;;;;;4967278;28;20154;-85
2021/08/25 01:52:35;;;;;;;0.25;0.20;;;24.50;87.70;;;;;;4963534;28;20058;-85
2021/08/25 01:55:04;;;;;;;0.75;0.47;;;24.60;87.60;;;;;;4961463;28;20050;-85
2021/08/25 01:57:33;;;;;;;1.10;0.38;;;24.70;87.50;;;;;;4961276;28;20061;-85
2021/08/25 02:03:47;;;;;;;1.40;0.50;;;24.60;87.70;;;;;;4950360;28;20107;-84
2021/08/25 02:06:47;;;;;;;0.80;0.30;;;24.60;88.00;;;;;;4999024;28;20070;-85
2021/08/25 02:09:15;;;;;;;1.20;0.50;;;24.60;88.00;;;;;;4957122;28;20105;-84
2021/08/25 02:11:58;;;;;;;1.52;0.55;;;24.50;88.40;;;;;;4953604;28;20046;-85
2021/08/25 02:14:26;;;;;;;1.55;0.32;;;24.40;88.10;;;;;;4958618;28;20046;-85
2021/08/25 02:16:54;;;;;;;0.85;0.30;;;24.30;88.20;;;;;;4962824;28;20114;-84
2021/08/25 02:19:24;;;;;;;0.95;0.50;;;24.20;88.40;;;;;;4958551;28;20055;-85
2021/08/25 02:21:52;;;;;;;0.50;0.40;;;24.20;88.20;;;;;;4965962;28;20050;-85
2021/08/25 02:24:25;;;;;;;3.75;0.50;;;24.20;88.20;;;;;;4962065;28;20061;-85
2021/08/25 02:26:53;;;;;;;0.45;0.30;;;24.20;88.10;;;;;;4957535;28;20065;-85
2021/08/25 02:29:21;;;;;;;0.90;0.40;;;24.10;88.30;;;;;;4968254;28;20042;-85
2021/08/25 02:31:49;;;;;;;0.70;0.30;;;24.20;88.20;;;;;;4959464;28;20046;-85
2021/08/25 02:34:17;;;;;;;2.88;0.73;;;24.20;88.40;;;;;;4961165;28;20385;-85
2021/08/25 02:36:47;;;;;;;1.38;0.30;;;24.20;88.30;;;;;;4971591;28;20098;-86
2021/08/25 02:39:15;;;;;;;0.82;0.40;;;24.10;88.60;;;;;;4961485;28;20050;-85
2021/08/25 02:41:43;;;;;;;0.85;0.50;;;24.10;88.90;;;;;;4963882;28;20072;-85
2021/08/25 02:44:11;;;;;;;0.60;0.30;;;24.10;89.50;;;;;;4962965;28;20038;-85
2021/08/25 02:46:39;;;;;;;1.58;0.60;;;24.10;89.80;;;;;;4963314;28;20058;-85
2021/08/25 02:49:08;;;;;;;1.05;0.30;;;24.10;90.00;;;;;;4976522;28;20039;-85
2021/08/25 02:51:36;;;;;;;0.50;0.30;;;24.00;90.30;;;;;;4964094;28;20106;-85
2021/08/25 02:54:06;;;;;;;2.35;0.40;;;23.90;91.40;;;;;;4961873;28;20046;-85
2021/08/25 02:56:34;;;;;;;1.15;0.50;;;23.90;91.80;;;;;;4964218;28;20062;-85
2021/08/25 02:59:02;;;;;;;1.55;0.40;;;23.90;91.90;;;;;;4966734;28;20039;-85
2021/08/25 03:01:30;;;;;;;1.38;0.40;;;23.80;92.10;;;;;;4966315;28;20150;-85
2021/08/25 03:03:59;;;;;;;1.20;0.50;;;23.90;91.80;;;;;;4976453;28;20504;-85
2021/08/25 03:06:27;;;;;;;0.77;0.50;;;23.90;91.60;;;;;;4966131;28;20078;-85
2021/08/25 03:08:55;;;;;;;0.88;0.40;;;24.00;91.60;;;;;;4967238;28;20156;-85
2021/08/25 03:11:24;;;;;;;0.85;0.40;;;24.00;91.90;;;;;;4960400;28;20035;-85
2021/08/25 03:13:59;;;;;;;1.95;0.65;;;23.90;92.20;;;;;;4968704;28;20501;-85
2021/08/25 03:16:27;;;;;;;1.48;0.40;;;23.80;92.20;;;;;;4964779;28;20515;-85
2021/08/25 03:19:14;;;;;;;2.80;0.68;;;23.80;92.10;;;;;;4967975;28;20038;-85
2021/08/25 03:21:42;;;;;;;;;;;23.80;91.90;;;;;;4960469;28;20047;-85
2021/08/25 03:24:29;;;;;;;1.30;0.60;;;23.80;91.80;;;;;;4946852;28;19930;-85
2021/08/25 03:26:59;;;;;;;2.25;0.40;;;23.80;91.80;;;;;;4930926;29;20134;-84
2021/08/25 03:29:46;;;;;;;1.65;0.52;;;23.80;91.60;;;;;;4911708;29;20090;-84
2021/08/25 03:32:19;;;;;;;1.05;0.40;;;23.60;92.00;;;;;;4922152;29;20047;-84
2021/08/25 03:34:48;;;;;;;2.72;0.45;;;23.60;92.10;;;;;;4925999;29;20052;-85
2021/08/25 03:37:18;;;;;;;0.50;0.40;;;23.50;92.30;;;;;;4941426;28;20107;-85
2021/08/25 03:39:48;;;;;;;1.05;0.45;;;23.50;92.50;;;;;;4947067;28;20064;-85
2021/08/25 03:42:19;;;;;;;1.08;0.60;;;23.50;92.60;;;;;;4938846;28;20502;-85
2021/08/25 03:45:36;;;;;;;0.75;0.40;;;23.50;92.70;;;;;;4922403;29;21030;-85
2021/08/25 03:48:06;;;;;;;1.67;0.50;;;23.50;93.00;;;;;;4959410;28;20056;-85
2021/08/25 03:50:34;;;;;;;2.65;0.57;;;23.40;93.20;;;;;;4938664;28;20094;-85
2021/08/25 03:53:02;;;;;;;1.52;0.50;;;23.30;94.10;;;;;;4930011;29;20518;-85
2021/08/25 03:56:11;;;;;;;2.53;0.70;;;23.20;94.80;;;;;;4940160;28;20499;-85
2021/08/25 03:58:41;;;;;;;2.83;0.75;;;23.10;95.50;;;;;;4928033;29;20130;-84
2021/08/25 04:01:09;;;;;;;4.07;0.80;;;23.10;95.60;;;;;;4934813;29;20414;-85
2021/08/25 04:03:38;;;;;;;1.02;0.50;;;23.10;95.40;;;;;;4946177;28;20458;-85
2021/08/25 04:06:07;;;;;;;2.53;0.88;;;23.20;94.70;;;;;;4927351;29;20047;-85
2021/08/25 04:08:36;;;;;;;1.83;1.00;;;23.20;94.50;;;;;;4967177;28;20274;-85
2021/08/25 04:11:06;;;;;;;2.17;1.10;;;23.10;94.50;;;;;;4928613;29;20051;-85
2021/08/25 04:13:34;;;;;;;1.52;0.98;;;23.10;94.60;;;;;;4935602;28;20506;-85
2021/08/25 04:16:04;;;;;;;1.50;0.90;;;23.10;94.40;;;;;;4911557;29;20082;-85
2021/08/25 04:18:32;;;;;;;1.95;1.10;;;23.20;94.40;;;;;;4940975;28;20059;-84
2021/08/25 04:21:00;;;;;;;2.58;1.55;;;23.20;94.40;;;;;;4942230;28;20040;-84
2021/08/25 04:23:28;;;;;;;2.42;1.27;;;23.10;94.50;;;;;;4941982;28;20048;-84
2021/08/25 04:25:56;;;;;;;4.35;1.30;;;23.20;94.30;;;;;;4947444;28;20576;-84
2021/08/25 04:28:25;;;;;;;3.55;1.70;;;23.20;94.50;;;;;;4962973;28;20047;-85
2021/08/25 04:30:53;;;;;;;7.07;1.20;;;23.30;94.20;;;;;;4964346;28;20043;-85
2021/08/25 04:33:23;;;;;;;3.08;1.25;;;23.20;94.30;;;;;;4963321;28;20035;-84
2021/08/25 04:35:51;;;;;;;3.10;1.15;;;23.20;94.40;;;;;;4965981;28;20050;-85
2021/08/25 04:38:20;;;;;;;1.63;0.90;;;23.00;94.70;;;;;;4946877;28;20043;-84
2021/08/25 04:40:48;;;;;;;3.85;1.05;;;22.90;95.10;;;;;;4965416;28;20145;-84
2021/08/25 04:43:16;;;;;;;2.20;1.00;;;22.80;95.40;;;;;;4961248;28;20134;-84
2021/08/25 04:45:44;;;;;;;3.38;0.90;;;23.00;95.10;;;;;;4961366;28;20039;-84
2021/08/25 04:48:13;;;;;;;0.90;0.70;;;23.00;95.00;;;;;;4976134;28;20456;-84
2021/08/25 04:50:42;;;;;;;3.30;0.98;;;23.10;95.10;;;;;;4962130;28;20070;-84
2021/08/25 04:53:10;;;;;;;1.88;0.88;;;23.10;95.20;;;;;;4964051;28;20039;-85
2021/08/25 04:55:39;;;;;;;3.75;1.10;;;23.10;95.40;;;;;;4965806;28;20391;-87
2021/08/25 04:58:07;;;;;;;1.83;1.00;;;23.10;95.60;;;;;;4963825;28;20043;-87
2021/08/25 05:00:35;;;;;;;3.15;0.90;;;22.90;96.20;;;;;;4953251;28;20061;-86
2021/08/25 05:03:04;;;;;;;3.72;1.27;;;22.70;96.70;;;;;;4963024;28;20046;-87
2021/08/25 05:05:32;;;;;;;2.80;1.25;;;22.70;96.70;;;;;;4965070;28;20532;-86
2021/08/25 05:08:02;;;;;;;3.63;0.90;;;22.70;96.70;;;;;;4957587;28;20059;-87
2021/08/25 05:10:31;;;;;;;2.67;1.08;;;22.70;96.70;;;;;;4963294;28;20050;-87
2021/08/25 05:12:59;;;;;;;2.75;0.70;;;22.70;96.70;;;;;;4963285;28;20158;-87
2021/08/25 05:15:27;;;;;;;3.08;1.02;;;22.70;96.70;;;;;;4964554;28;20070;-88
2021/08/25 05:17:55;;;;;;;1.77;0.88;;;22.70;96.70;;;;;;4962365;28;20505;-87
2021/08/25 05:20:23;;;;;;;2.53;0.85;;;22.70;96.70;;;;;;4966895;28;20106;-88
2021/08/25 05:22:52;;;;;;;1.42;0.80;;;22.70;96.70;;;;;;4950998;28;20050;-88
2021/08/25 05:25:22;;;;;;;3.03;1.13;;;22.70;96.70;;;;;;4970919;28;20062;-87
2021/08/25 05:27:51;;;;;;;3.10;0.95;;;22.80;96.70;;;;;;4954144;28;20050;-86
2021/08/25 05:30:19;;;;;;;2.25;0.80;;;22.80;96.70;;;;;;4960441;28;20034;-87
2021/08/25 05:32:52;;;;;;;1.58;0.80;;;22.80;96.70;;;;;;4962406;28;20077;-88
2021/08/25 05:35:20;;;;;;;1.52;0.90;;;22.90;96.70;;;;;;4966869;28;20053;-87
2021/08/25 05:37:49;;;;;;;1.70;0.90;;;23.00;96.70;;;;;;4979799;28;20153;-87
2021/08/25 05:40:18;;;;;;;1.85;0.93;;;23.10;96.70;;;;;;4971032;28;20042;-88
2021/08/25 05:42:48;;;;;;;1.25;1.00;;;23.20;96.70;;;;;;4962863;28;20517;-88
2021/08/25 05:45:17;;;;;;;1.55;0.80;;;23.30;96.70;;;;;;4967636;28;20039;-88
2021/08/25 05:47:45;;;;;;;1.80;1.00;;;23.50;96.70;;;;;;4963705;28;20059;-87
2021/08/25 05:50:13;;;;;;;1.20;0.80;;;23.60;96.70;;;;;;4973066;28;20122;-87
2021/08/25 05:52:41;;;;;;;3.42;0.90;;;23.70;96.70;;;;;;4945633;28;20050;-87
2021/08/25 05:55:10;;;;;;;2.35;0.55;;;23.90;96.70;;;;;;4976792;28;20053;-88
2021/08/25 05:57:45;;;;;;;3.47;0.80;;;24.00;96.70;;;;;;4975487;28;20077;-89
2021/08/25 06:00:17;;;;;;;1.25;0.70;;;24.10;96.70;;;;;;4974313;28;20521;-89
2021/08/25 06:02:50;;;;;;;2.70;0.88;;;24.20;96.70;;;;;;4963134;28;20042;-87
2021/08/25 06:05:19;;;;;;;2.78;0.85;;;24.30;96.70;;;;;;4943867;28;20070;-85
2021/08/25 06:07:48;;;;;;;4.78;0.70;;;24.30;96.60;;;;;;4965099;28;20058;-87
2021/08/25 06:10:16;;;;;;;1.65;0.85;;;24.40;96.40;;;;;;4965344;28;20101;-88
2021/08/25 06:12:44;;;;;;;5.43;0.68;;;24.50;95.70;;;;;;4966597;28;20071;-86
2021/08/25 06:15:14;;;;;;;4.20;0.80;;;24.50;95.90;;;;;;4959656;28;20133;-91
2021/08/25 06:17:42;;;;;;;3.03;0.73;;;24.60;95.50;;;;;;4959937;28;20627;-93
2021/08/25 06:20:11;;;;;;;2.88;0.70;;;24.60;95.50;;;;;;4962357;28;20125;-91
2021/08/25 06:22:40;;;;;;;1.95;0.73;;;24.70;95.70;;;;;;4980945;28;20053;-91
2021/08/25 06:25:09;;;;;;;2.45;0.90;;;24.70;95.40;;;;;;4960811;28;20047;-88
2021/08/25 06:27:38;;;;;;;3.42;0.80;;;24.80;95.00;;;;;;4947291;28;20105;-89
2021/08/25 06:30:07;;;;;;;2.47;0.93;;;24.80;94.80;;;;;;4960711;28;20095;-89
2021/08/25 06:32:38;;;;;;;3.05;0.63;;;24.80;95.00;;;;;;4961819;28;20050;-91
2021/08/25 06:35:07;;;;;;;1.55;0.85;;;24.80;94.90;;;;;;4962926;28;20055;-92
2021/08/25 06:37:35;;;;;;;3.35;0.77;;;24.90;94.80;;;;;;4961937;28;20130;-92
2021/08/25 06:40:04;;;;;;;2.58;0.85;;;24.90;94.70;;;;;;4960930;28;20047;-90
2021/08/25 06:42:33;;;;;;;1.90;0.70;;;24.90;94.80;;;;;;4969526;28;20102;-91
2021/08/25 06:45:01;;;;;;;2.70;0.68;;;25.00;94.70;;;;;;4965233;28;20051;-90
2021/08/25 06:47:29;;;;;;;2.97;0.93;;;25.00;94.30;;;;;;4962821;28;20142;-90
2021/08/25 06:49:59;;;;;;;3.05;0.80;;;25.00;94.50;;;;;;4966217;28;20051;-92
2021/08/25 06:52:27;;;;;;;1.83;0.85;;;25.10;94.40;;;;;;4962902;28;20039;-89
2021/08/25 06:54:55;;;;;;;1.08;0.90;;;25.10;93.80;;;;;;4949845;28;20071;-93
2021/08/25 06:57:24;;;;;;;1.15;0.50;;;25.20;93.90;;;;;;4965222;28;20047;-90
2021/08/25 06:59:52;;;;;;;3.28;0.93;;;25.20;93.70;;;;;;4961694;28;20335;-89
2021/08/25 07:02:20;;;;;;;4.13;0.80;;;25.30;93.60;;;;;;4966688;28;20341;-91
2021/08/25 07:04:48;;;;;;;1.23;0.80;;;25.30;93.80;;;;;;4966139;28;20066;-92
2021/08/25 07:07:18;;;;;;;3.45;0.60;;;25.40;93.10;;;;;;4962627;28;20078;-90
2021/08/25 07:09:46;;;;;;;2.47;0.80;;;25.40;93.00;;;;;;4952482;28;20532;-91
2021/08/25 07:12:15;;;;;;;1.05;0.65;;;25.30;92.60;;;;;;4969450;28;20057;-90
2021/08/25 07:14:43;;;;;;;5.25;1.38;;;25.40;92.60;;;;;;4964213;28;20054;-89
2021/08/25 07:17:11;;;;;;;1.77;0.80;;;25.40;92.80;;;;;;4962064;28;20388;-89
2021/08/25 07:19:41;;;;;;;3.22;0.50;;;25.50;92.40;;;;;;4976058;28;20606;-91
2021/08/25 07:22:10;;;;;;;1.85;0.70;;;25.60;92.20;;;;;;4967045;28;20074;-91
2021/08/25 07:24:40;;;;;;;2.67;0.85;;;25.60;91.70;;;;;;4965113;28;20061;-90
2021/08/25 07:27:08;;;;;;;1.98;0.70;;;25.60;91.90;;;;;;4958467;28;20045;-88
2021/08/25 07:29:37;;;;;;;2.22;0.68;;;25.60;91.90;;;;;;4977319;28;20487;-90
2021/08/25 07:32:06;;;;;;;9.75;1.20;;;25.70;92.30;;;;;;4959002;28;20512;-89
2021/08/25 07:34:34;;;;;;;2.45;0.90;;;25.80;92.20;;;;;;4962807;28;20050;-89
2021/08/25 07:37:03;;;;;;;2.67;0.70;;;25.90;92.60;;;;;;4967667;28;20043;-89
2021/08/25 07:39:31;;;;;;;4.18;0.90;;;26.00;91.90;;;;;;4964139;28;20120;-90
2021/08/25 07:42:01;;;;;;;2.33;0.80;;;26.00;91.80;;;;;;4959973;28;20084;-88
2021/08/25 07:44:29;;;;;;;4.05;0.75;;;26.00;91.40;;;;;;4970394;28;20039;-89
2021/08/25 07:46:57;;;;;;;2.55;0.98;;;26.10;91.30;;;;;;4962525;28;20062;-88
2021/08/25 07:49:25;;;;;;;2.63;0.80;;;26.20;91.40;;;;;;4970828;28;20039;-89
2021/08/25 07:51:54;;;;;;;2.35;0.73;;;26.20;91.10;;;;;;4966394;28;20042;-91
2021/08/25 07:54:22;;;;;;;1.65;0.70;;;26.20;90.80;;;;;;4965963;28;20559;-92
2021/08/25 07:56:50;;;;;;;2.40;0.65;;;26.30;90.90;;;;;;4967088;28;20038;-92
2021/08/25 07:59:20;;;;;;;4.22;1.05;;;26.30;90.90;;;;;;4980593;28;20098;-92
2021/08/25 08:01:48;;;;;;;4.90;1.05;;;26.40;90.80;;;;;;4974351;28;20046;-91
2021/08/25 08:04:17;;;;;;;2.22;1.00;;;26.40;90.80;;;;;;4970146;28;20053;-91
2021/08/25 08:06:46;;;;;;;2.13;0.73;;;26.40;91.00;;;;;;4968478;28;20050;-91
2021/08/25 08:09:14;;;;;;;2.30;0.90;;;26.50;90.30;;;;;;4970083;28;20042;-91
2021/08/25 08:11:42;;;;;;;2.97;1.00;;;26.50;90.70;;;;;;4963881;28;20043;-90
2021/08/25 08:14:11;;;;;;;2.90;0.82;;;26.50;90.30;;;;;;4971316;28;20042;-89
2021/08/25 08:16:44;;;;;;;3.85;0.80;;;26.50;89.70;;;;;;4970686;28;20045;-93
2021/08/25 08:19:33;;;;;;;1.52;0.98;;;26.50;89.60;;;;;;4951279;28;20078;-89
2021/08/25 08:22:03;;;;;;;1.77;0.75;;;26.60;89.80;;;;;;4959491;28;20117;-90
2021/08/25 08:24:31;;;;;;;3.45;1.08;;;26.60;90.30;;;;;;4969249;28;20134;-91
2021/08/25 08:27:00;;;;;;;3.38;0.80;;;26.60;90.40;;;;;;4972613;28;20402;-93
2021/08/25 08:29:29;;;;;;;3.50;1.02;;;26.70;90.80;;;;;;4949579;28;20043;-94
2021/08/25 08:31:58;;;;;;;1.83;0.70;;;26.90;90.20;;;;;;4931637;28;20048;-93
2021/08/25 08:34:27;;;;;;;2.10;0.68;;;27.00;89.70;;;;;;4950748;28;20050;-93
2021/08/25 08:36:55;;;;;;;5.32;1.50;;;26.90;90.00;;;;;;4946680;28;20051;-92
2021/08/25 08:39:24;;;;;;;1.30;0.60;;;27.00;90.30;;;;;;4945488;28;20413;-90
2021/08/25 08:41:52;;;;;;;2.38;0.65;;;27.10;89.60;;;;;;4929515;29;20070;-91
2021/08/25 08:44:20;;;;;;;3.17;0.55;;;27.20;89.00;;;;;;4941921;28;20043;-93
2021/08/25 08:46:50;;;;;;;1.55;0.68;;;27.20;88.90;;;;;;4957744;28;20050;-92
2021/08/25 08:49:20;;;;;;;1.63;1.02;;;27.30;89.20;;;;;;4945641;28;20047;-87
2021/08/25 08:51:49;;;;;;;4.82;0.80;;;27.40;88.80;;;;;;4950912;28;20122;-88
2021/08/25 08:54:19;;;;;;;2.15;0.70;;;27.30;88.70;;;;;;4944155;28;20059;-90
2021/08/25 08:56:50;;;;;;;2.08;0.82;;;27.40;88.60;;;;;;4946281;28;20047;-90
2021/08/25 08:59:18;;;;;;;3.90;1.17;;;27.50;88.40;;;;;;4946360;28;20509;-88
2021/08/25 09:01:46;;;;;;;2.63;0.88;;;27.50;87.40;;;;;;4959773;28;20042;-88
2021/08/25 09:04:34;;;;;;;1.10;0.70;;;27.50;86.70;;;;;;4928898;29;20040;-90
2021/08/25 09:07:03;;;;;;;4.15;0.73;;;27.60;86.90;;;;;;4948591;28;20051;-94
2021/08/25 09:09:51;;;;;;;7.88;1.10;;;27.60;87.10;;;;;;4946447;28;20047;-95
2021/08/25 09:12:20;;;;;;;1.30;0.60;;;27.70;86.80;;;;;;4939929;28;20114;-94
2021/08/25 09:14:48;;;;;;;1.70;0.80;;;27.80;87.10;;;;;;4952092;28;20049;-91
2021/08/25 09:17:27;;;;;;;1.20;0.60;;;27.90;87.10;;;;;;4934681;28;20046;-90
2021/08/25 09:20:11;;;;;;;2.55;0.75;;;28.10;86.60;;;;;;4948857;28;20047;-95
2021/08/25 09:22:39;;;;;;;1.30;0.60;;;28.20;85.70;;;;;;4949163;28;20055;-91
2021/08/25 09:25:08;;;;;;;3.30;0.80;;;28.10;85.50;;;;;;4953180;28;20047;-93
2021/08/25 09:27:37;;;;;;;3.38;0.70;;;28.10;85.60;;;;;;4977389;28;20051;-90
2021/08/25 09:30:06;;;;;;;1.67;0.98;;;28.20;85.70;;;;;;4965786;28;20505;-90
2021/08/25 09:32:35;;;;;;;1.77;0.80;;;28.30;84.50;;;;;;4947214;28;20051;-89
2021/08/25 09:35:03;;;;;;;2.92;1.00;;;28.50;84.70;;;;;;4965581;28;20051;-91
2021/08/25 09:37:33;;;;;;;2.97;1.10;;;28.40;84.30;;;;;;4963199;28;20235;-92
2021/08/25 09:40:12;;;;;;;1.48;0.70;;;28.50;84.70;;;;;;4980252;28;20042;-93
2021/08/25 09:42:42;;;;;;;1.90;0.60;;;28.60;84.50;;;;;;4973189;28;20060;-91
2021/08/25 09:45:14;;;;;;;1.42;0.80;;;28.60;83.60;;;;;;4963522;28;20035;-92
2021/08/25 09:47:47;;;;;;;3.42;0.90;;;28.50;83.20;;;;;;4963702;28;20125;-89
2021/08/25 09:50:16;;;;;;;1.17;0.60;;;28.50;83.80;;;;;;4972992;28;20746;-90
2021/08/25 09:52:46;;;;;;;1.42;0.73;;;28.50;83.10;;;;;;4971699;28;20049;-90
2021/08/25 09:55:16;;;;;;;2.97;0.85;;;28.50;83.10;;;;;;4966038;28;20146;-89
2021/08/25 09:57:45;;;;;;;1.80;0.65;;;28.60;83.80;;;;;;4949151;28;20051;-90
2021/08/25 10:00:14;;;;;;;0.90;0.70;;;28.70;83.70;;;;;;4965197;28;20070;-94
2021/08/25 10:02:43;;;;;;;2.50;0.65;;;28.80;82.90;;;;;;4950206;28;20460;-89
2021/08/25 10:05:27;;;;;;;2.80;0.70;;;29.00;83.20;;;;;;4959705;28;20053;-89
2021/08/25 10:07:57;;;;;;;1.15;0.80;;;28.90;82.20;;;;;;4962067;28;20043;-90
2021/08/25 10:10:26;;;;;;;2.08;0.50;;;28.90;82.60;;;;;;4959914;28;20113;-90
2021/08/25 10:12:54;;;;;;;1.67;0.57;;;28.90;82.00;;;;;;4962845;28;20485;-88
2021/08/25 10:15:45;;;;;;;1.48;0.70;;;29.00;82.00;;;;;;4962050;28;20043;-89
2021/08/25 10:18:29;;;;;;;1.77;1.02;;;29.10;81.90;;;;;;4965654;28;20039;-89
2021/08/25 10:20:58;;;;;;;1.83;0.70;;;29.40;82.00;;;;;;4946981;28;20061;-88
2021/08/25 10:24:05;;;;;;;3.17;0.77;;;29.40;80.60;;;;;;4962416;28;20070;-89
2021/08/25 10:27:08;;;;;;;2.13;0.40;;;29.50;80.70;;;;;;4960273;28;20145;-92
2021/08/25 10:30:07;;;;;;;2.80;0.50;;;29.70;80.70;;;;;;4947938;28;20146;-87
2021/08/25 10:32:37;;;;;;;1.73;0.52;;;29.90;81.00;;;;;;4965732;28;20078;-88
2021/08/25 10:35:20;;;;;;;1.88;0.55;;;29.80;80.40;;;;;;4961077;28;20043;-91
2021/08/25 10:37:49;;;;;;;1.98;0.77;;;29.90;80.80;;;;;;4974495;28;20129;-89
2021/08/25 10:40:31;;;;;;;0.70;0.60;;;29.70;81.10;;;;;;4961578;28;20065;-90
2021/08/25 10:43:01;;;;;;;2.53;0.63;;;29.70;80.90;;;;;;4954444;28;20058;-89
2021/08/25 10:45:55;;;;;;;1.88;0.50;;;29.90;81.10;;;;;;4962018;28;20059;-88
2021/08/25 10:48:38;;;;;;;1.73;0.80;;;29.90;80.50;;;;;;4964619;28;20039;-89
2021/08/25 10:51:36;;;;;;;2.55;0.70;;;30.00;79.90;;;;;;4965570;28;20047;-90
2021/08/25 10:54:07;;;;;;;1.55;0.40;;;29.90;79.80;;;;;;4962245;28;20042;-89
2021/08/25 10:56:43;;;;;;;1.85;0.60;;;29.90;80.30;;;;;;4974399;28;20050;-89
2021/08/25 10:59:13;;;;;;;0.73;0.60;;;30.10;80.20;;;;;;4965010;28;20047;-89
2021/08/25 11:01:42;;;;;;;1.67;0.60;;;29.90;79.20;;;;;;4973052;28;20042;-90
2021/08/25 11:04:13;;;;;;;0.60;0.40;;;29.60;79.60;;;;;;4967503;28;20134;-86
2021/08/25 11:06:47;;;;;;;0.85;0.65;;;29.50;80.80;;;;;;4967465;28;20081;-90
2021/08/25 11:09:17;;;;;;;2.00;0.60;;;29.70;80.30;;;;;;4958263;28;20049;-90
2021/08/25 11:11:54;;;;;;;0.55;0.35;;;30.00;79.50;;;;;;4963362;28;20043;-90
2021/08/25 11:14:28;;;;;;;1.90;0.70;;;29.90;78.60;;;;;;4950180;28;20043;-91
2021/08/25 11:16:58;;;;;;;1.80;0.55;;;29.90;78.80;;;;;;4958270;28;20054;-88
2021/08/25 11:19:29;;;;;;;4.50;0.85;;;30.10;78.10;;;;;;4972533;28;20058;-89
2021/08/25 11:21:59;;;;;;;1.52;0.50;;;30.10;78.10;;;;;;4967079;28;20046;-89
2021/08/25 11:24:36;;;;;;;1.50;0.50;;;29.90;79.20;;;;;;4964741;28;20074;-88
2021/08/25 11:27:28;;;;;;;1.58;0.57;;;30.00;79.00;;;;;;4961579;28;20113;-87
2021/08/25 11:30:11;;;;;;;1.85;0.60;;;30.10;78.00;;;;;;4968542;28;20046;-89
2021/08/25 11:32:53;;;;;;;2.00;0.50;;;30.30;78.20;;;;;;4970297;28;20047;-88
2021/08/25 11:35:25;;;;;;;0.90;0.50;;;30.60;77.40;;;;;;4969090;28;20549;-89
2021/08/25 11:37:55;;;;;;;1.20;0.40;;;30.60;76.60;;;;;;4949617;28;20042;-88
2021/08/25 11:40:24;;;;;;;0.98;0.50;;;30.50;77.20;;;;;;4977948;28;20049;-89
2021/08/25 11:42:54;;;;;;;1.45;0.45;;;30.20;77.00;;;;;;4962399;28;20094;-88
2021/08/25 11:45:28;;;;;;;1.50;0.52;;;30.20;77.30;;;;;;4965938;28;20544;-89
2021/08/25 11:47:58;;;;;;;2.42;0.50;;;30.30;76.90;;;;;;4952464;28;20157;-89
2021/08/25 11:50:29;;;;;;;0.85;0.55;;;30.30;76.90;;;;;;4979424;28;20050;-89
2021/08/25 11:52:59;;;;;;;2.50;0.50;;;30.30;76.70;;;;;;4967264;28;20046;-89
2021/08/25 11:55:28;;;;;;;0.85;0.47;;;30.50;75.80;;;;;;4966610;28;20050;-89
2021/08/25 11:57:58;;;;;;;1.50;0.50;;;30.60;76.40;;;;;;4964692;28;20045;-86
2021/08/25 12:00:38;;;;;;;1.33;0.50;;;30.90;76.70;;;;;;4963127;28;20050;-87
2021/08/25 12:03:08;;;;;;;3.03;0.73;;;31.20;75.70;;;;;;4964789;28;20050;-83
2021/08/25 12:05:38;;;;;;;2.45;0.40;;;31.60;75.90;;;;;;4964962;28;20047;-89
2021/08/25 12:08:09;;;;;;;0.98;0.43;;;31.80;74.90;;;;;;4952661;28;20074;-86
2021/08/25 12:10:39;;;;;;;1.55;0.50;;;32.10;74.00;;;;;;4966811;28;20134;-84
2021/08/25 12:13:11;;;;;;;1.55;0.70;;;32.10;73.40;;;;;;4982157;28;20674;-83
2021/08/25 12:15:48;;;;;;;1.85;0.60;;;32.00;73.70;;;;;;4966722;28;20058;-85
2021/08/25 12:18:17;;;;;;;1.63;0.82;;;31.90;74.30;;;;;;4965205;28;20065;-84
2021/08/25 12:20:47;;;;;;;0.93;0.68;;;32.10;74.30;;;;;;4948690;28;20072;-84
2021/08/25 12:23:18;;;;;;;1.55;0.47;;;32.00;73.90;;;;;;4966553;28;20501;-85
2021/08/25 12:25:48;;;;;;;2.28;0.50;;;31.80;73.80;;;;;;4949710;28;20081;-82
2021/08/25 12:28:32;;;;;;;1.75;0.50;;;31.70;73.10;;;;;;4965714;28;20130;-83
2021/08/25 12:31:19;;;;;;;2.05;0.40;;;31.80;73.20;;;;;;4965128;28;20055;-85
2021/08/25 12:33:51;;;;;;;2.90;0.52;;;32.00;73.90;;;;;;4961269;28;20362;-82
2021/08/25 12:36:27;;;;;;;1.02;0.60;;;32.10;73.20;;;;;;4963357;28;20118;-86
2021/08/25 12:39:10;;;;;;;0.70;0.40;;;32.30;72.70;;;;;;4960095;28;20070;-85
2021/08/25 12:41:39;;;;;;;1.65;0.50;;;32.30;73.60;;;;;;4967284;28;20097;-85
2021/08/25 12:44:09;;;;;;;0.70;0.40;;;32.60;72.60;;;;;;4947446;28;20051;-84
2021/08/25 12:46:49;;;;;;;1.02;0.40;;;32.80;72.10;;;;;;4965278;28;20043;-85
2021/08/25 12:49:17;;;;;;;1.48;0.60;;;32.90;72.10;;;;;;4965888;28;20049;-86
2021/08/25 12:51:46;;;;;;;2.13;0.40;;;33.10;72.10;;;;;;4952265;28;20109;-84
2021/08/25 12:54:15;;;;;;;2.58;0.68;;;33.20;72.00;;;;;;4951224;28;20066;-84
2021/08/25 12:56:44;;;;;;;0.70;0.47;;;33.30;71.20;;;;;;4955799;28;20035;-84
2021/08/25 12:59:14;;;;;;;1.40;0.50;;;33.20;70.60;;;;;;4961918;28;20298;-83
2021/08/25 13:01:42;;;;;;;3.35;0.50;;;33.20;71.20;;;;;;4972877;28;20055;-85
2021/08/25 13:04:12;;;;;;;3.03;0.80;;;33.40;70.70;;;;;;4963710;28;20054;-84
2021/08/25 13:06:40;;;;;;;1.10;0.50;;;33.50;70.20;;;;;;4981530;28;20047;-84
2021/08/25 13:09:08;;;;;;;1.25;0.60;;;33.60;70.00;;;;;;4950024;28;20727;-84
2021/08/25 13:11:37;;;;;;;1.30;0.65;;;33.80;69.30;;;;;;4980032;28;20134;-84
2021/08/25 13:14:05;;;;;;;1.27;0.60;;;33.80;69.70;;;;;;4978890;28;20049;-82